createdAt,value
2019-05-03T00:02:28.450Z,10.60
2019-05-03T00:05:17.951Z,10.50
2019-05-03T00:07:48.791Z,10.50
2019-05-03T00:10:19.615Z,10.50
2019-05-03T00:12:49.735Z,10.50
2019-05-03T00:15:38.949Z,10.60
2019-05-03T00:18:09.031Z,10.60
2019-05-03T00:20:39.173Z,10.50
2019-05-03T00:23:09.315Z,10.60
2019-05-03T00:25:41.871Z,10.60
2019-05-03T00:28:13.298Z,10.50
2019-05-03T00:30:43.459Z,10.50
2019-05-03T00:33:13.897Z,10.50
2019-05-03T00:36:18.589Z,10.60
2019-05-03T00:38:53.196Z,10.60
2019-05-03T00:41:25.581Z,10.70
2019-05-03T00:43:55.742Z,10.60
2019-05-03T00:46:27.955Z,10.60
2019-05-03T00:48:58.091Z,10.60
2019-05-03T00:51:31.780Z,10.70
2019-05-03T00:54:02.214Z,10.70
2019-05-03T00:56:32.345Z,10.60
2019-05-03T00:59:02.421Z,10.60
2019-05-03T01:01:32.560Z,10.50
2019-05-03T01:04:03.766Z,10.30
2019-05-03T01:06:34.241Z,10.30
2019-05-03T01:09:22.527Z,10.40
2019-05-03T01:11:52.773Z,10.40
2019-05-03T01:14:22.854Z,10.40
2019-05-03T01:16:52.985Z,10.40
2019-05-03T01:19:26.683Z,10.40
2019-05-03T01:21:58.009Z,10.50
2019-05-03T01:24:28.215Z,10.50
2019-05-03T01:26:59.585Z,10.50
2019-05-03T01:29:29.732Z,10.40
2019-05-03T01:31:59.892Z,10.50
2019-05-03T01:34:32.661Z,10.50
2019-05-03T01:37:03.123Z,10.50
2019-05-03T01:39:33.273Z,10.50
2019-05-03T01:42:05.642Z,10.60
2019-05-03T01:44:42.619Z,10.60
2019-05-03T01:47:16.377Z,10.60
2019-05-03T01:50:02.879Z,10.60
2019-05-03T01:52:38.919Z,10.60
2019-05-03T01:55:13.152Z,10.60
2019-05-03T01:57:43.080Z,10.60
2019-05-03T02:00:23.325Z,10.70
2019-05-03T02:03:01.653Z,10.70
2019-05-03T02:05:53.284Z,10.60
2019-05-03T02:08:23.476Z,10.70
2019-05-03T02:10:53.629Z,10.70
2019-05-03T02:13:24.195Z,10.70
2019-05-03T02:15:54.432Z,10.70
2019-05-03T02:18:24.581Z,10.70
2019-05-03T02:20:54.760Z,10.60
2019-05-03T02:23:27.294Z,10.60
2019-05-03T02:25:59.199Z,10.60
2019-05-03T02:28:32.719Z,10.60
2019-05-03T02:31:05.925Z,10.60
2019-05-03T02:33:36.509Z,10.60
2019-05-03T02:36:06.951Z,10.60
2019-05-03T02:38:42.815Z,10.60
2019-05-03T02:41:13.413Z,10.70
2019-05-03T02:43:48.788Z,10.70
2019-05-03T02:46:46.989Z,10.70
2019-05-03T02:49:42.048Z,10.60
2019-05-03T02:52:31.150Z,10.60
2019-05-03T02:55:06.108Z,10.60
2019-05-03T02:57:36.722Z,10.60
2019-05-03T03:00:09.647Z,10.60
2019-05-03T03:02:41.141Z,10.50
2019-05-03T03:05:12.329Z,10.60
2019-05-03T03:07:52.067Z,10.70
2019-05-03T03:10:23.133Z,10.80
2019-05-03T03:12:57.500Z,10.80
2019-05-03T03:15:31.964Z,10.80
2019-05-03T03:18:02.206Z,10.70
2019-05-03T03:20:35.878Z,10.80
2019-05-03T03:23:08.554Z,10.80
2019-05-03T03:25:42.114Z,10.80
2019-05-03T03:28:15.920Z,10.90
2019-05-03T03:30:59.037Z,10.90
2019-05-03T03:33:29.203Z,10.80
2019-05-03T03:36:29.284Z,10.80
2019-05-03T03:38:31.958Z,10.70
2019-05-03T03:41:05.891Z,10.50
2019-05-03T03:43:36.662Z,10.40
2019-05-03T03:46:08.768Z,10.50
2019-05-03T03:48:41.116Z,10.40
2019-05-03T03:51:12.211Z,10.30
2019-05-03T03:53:46.582Z,10.30
2019-05-03T03:56:18.906Z,10.30
2019-05-03T03:58:49.926Z,10.30
2019-05-03T04:01:20.503Z,10.40
2019-05-03T04:03:50.627Z,10.50
2019-05-03T04:06:26.667Z,10.40
2019-05-03T04:08:57.984Z,10.40
2019-05-03T04:11:28.409Z,10.40
2019-05-03T04:14:01.607Z,10.40
2019-05-03T04:16:45.502Z,10.40
2019-05-03T04:19:20.116Z,10.40
2019-05-03T04:21:51.653Z,10.40
2019-05-03T04:24:22.087Z,10.40
2019-05-03T04:27:15.646Z,10.50
2019-05-03T04:29:40.331Z,10.50
2019-05-03T04:32:12.017Z,10.50
2019-05-03T04:34:42.134Z,10.50
2019-05-03T04:37:12.530Z,10.40
2019-05-03T04:39:45.352Z,10.50
2019-05-03T04:42:18.321Z,10.50
2019-05-03T04:44:50.815Z,10.60
2019-05-03T04:47:26.066Z,10.60
2019-05-03T04:49:56.295Z,10.70
2019-05-03T04:52:26.998Z,10.70
2019-05-03T04:55:06.544Z,10.80
2019-05-03T04:57:44.929Z,10.80
2019-05-03T05:00:11.839Z,10.70
2019-05-03T05:02:42.595Z,10.70
2019-05-03T05:05:16.078Z,10.70
2019-05-03T05:07:55.814Z,10.70
2019-05-03T05:10:36.227Z,10.70
2019-05-03T05:13:26.490Z,10.60
2019-05-03T05:16:00.728Z,10.70
2019-05-03T05:18:38.221Z,10.80
2019-05-03T05:21:14.879Z,10.90
2019-05-03T05:24:15.173Z,11.00
2019-05-03T05:26:59.014Z,11.00
2019-05-03T05:29:38.767Z,11.00
2019-05-03T05:32:10.860Z,11.10
2019-05-03T05:34:41.265Z,11.20
2019-05-03T05:37:14.433Z,11.30
2019-05-03T05:39:44.841Z,11.10
2019-05-03T05:42:15.093Z,11.10
2019-05-03T05:44:46.133Z,11.10
2019-05-03T05:47:34.548Z,11.10
2019-05-03T05:50:09.505Z,11.10
2019-05-03T05:52:39.940Z,11.10
2019-05-03T05:55:28.664Z,11.20
2019-05-03T05:58:12.704Z,11.00
2019-05-03T06:00:49.434Z,11.00
2019-05-03T06:03:21.637Z,11.00
2019-05-03T06:05:52.761Z,11.00
2019-05-03T06:08:37.730Z,10.70
2019-05-03T06:11:35.724Z,10.80
2019-05-03T06:14:18.877Z,10.70
2019-05-03T06:17:08.470Z,10.70
2019-05-03T06:20:06.876Z,10.80
2019-05-03T06:22:44.831Z,10.80
2019-05-03T06:25:30.155Z,10.70
2019-05-03T06:28:14.717Z,10.40
2019-05-03T06:30:49.655Z,10.40
2019-05-03T06:33:19.866Z,10.30
2019-05-03T06:35:50.031Z,10.20
2019-05-03T06:38:21.977Z,10.20
2019-05-03T06:40:54.285Z,10.10
2019-05-03T06:43:24.573Z,9.90
2019-05-03T06:45:56.294Z,9.70
2019-05-03T06:48:28.154Z,9.60
2019-05-03T06:51:00.253Z,9.50
2019-05-03T06:53:30.513Z,9.40
2019-05-03T06:56:01.109Z,9.40
2019-05-03T06:58:33.717Z,9.30
2019-05-03T07:01:25.401Z,9.30
2019-05-03T07:04:05.123Z,9.20
2019-05-03T07:06:45.433Z,9.10
2019-05-03T07:09:40.392Z,9.20
2019-05-03T07:12:10.877Z,9.20
2019-05-03T07:14:41.159Z,9.20
2019-05-03T07:17:11.773Z,9.30
2019-05-03T07:19:42.731Z,9.40
2019-05-03T07:22:15.264Z,9.50
2019-05-03T07:24:50.999Z,9.60
2019-05-03T07:27:19.520Z,9.60
2019-05-03T07:29:50.538Z,9.60
2019-05-03T07:32:21.477Z,9.70
2019-05-03T07:34:51.773Z,9.50
2019-05-03T07:37:22.005Z,9.40
2019-05-03T07:39:52.231Z,9.40
2019-05-03T07:42:22.507Z,9.40
2019-05-03T07:44:52.811Z,9.40
2019-05-03T07:47:24.679Z,9.50
2019-05-03T07:50:02.233Z,9.50
2019-05-03T07:52:29.135Z,9.50
2019-05-03T07:54:59.437Z,9.60
2019-05-03T07:57:35.690Z,9.50
2019-05-03T08:00:07.074Z,9.40
2019-05-03T08:02:37.395Z,9.40
2019-05-03T08:05:08.640Z,9.40
2019-05-03T08:07:38.962Z,9.50
2019-05-03T08:10:09.499Z,9.70
2019-05-03T08:12:39.802Z,9.50
2019-05-03T08:15:11.547Z,9.50
2019-05-03T08:17:41.993Z,9.60
2019-05-03T08:20:14.288Z,9.50
2019-05-03T08:22:46.391Z,9.50
2019-05-03T08:25:16.595Z,9.50
2019-05-03T08:27:47.107Z,9.60
2019-05-03T08:30:22.147Z,9.70
2019-05-03T08:33:05.409Z,9.80
2019-05-03T08:35:38.204Z,9.90
2019-05-03T08:38:08.525Z,9.80
2019-05-03T08:40:45.522Z,9.80
2019-05-03T08:43:16.728Z,9.90
2019-05-03T08:45:47.436Z,10.00
2019-05-03T08:48:17.945Z,10.20
2019-05-03T08:50:48.150Z,10.30
2019-05-03T08:53:18.305Z,10.50
2019-05-03T08:55:48.483Z,10.50
2019-05-03T08:58:25.689Z,10.40
2019-05-03T09:00:54.539Z,10.60
2019-05-03T09:03:25.045Z,10.70
2019-05-03T09:06:06.319Z,11.00
2019-05-03T09:08:36.008Z,11.10
2019-05-03T09:11:15.414Z,11.00
2019-05-03T09:13:57.009Z,10.90
2019-05-03T09:16:31.807Z,11.10
2019-05-03T09:19:05.528Z,11.30
2019-05-03T09:21:35.963Z,11.40
2019-05-03T09:24:06.289Z,11.50
2019-05-03T09:26:36.473Z,11.30
2019-05-03T09:29:09.488Z,11.30
2019-05-03T09:31:40.703Z,11.20
2019-05-03T09:34:14.782Z,11.10
2019-05-03T09:36:45.693Z,11.20
2019-05-03T09:39:16.264Z,11.40
2019-05-03T09:41:50.409Z,11.50
2019-05-03T09:44:21.929Z,11.70
2019-05-03T09:46:52.376Z,11.60
2019-05-03T09:49:25.350Z,11.50
2019-05-03T09:51:55.841Z,11.30
2019-05-03T09:54:31.195Z,11.10
2019-05-03T09:57:06.173Z,11.00
2019-05-03T09:59:55.712Z,10.90
2019-05-03T10:02:24.492Z,10.80
2019-05-03T10:04:55.411Z,11.10
2019-05-03T10:08:05.494Z,11.40
2019-05-03T10:11:15.477Z,11.60
2019-05-03T10:13:48.713Z,11.70
2019-05-03T10:17:15.951Z,11.70
2019-05-03T10:28:21.440Z,12.00
2019-05-03T10:35:15.086Z,12.20
2019-05-03T10:37:46.697Z,12.00
2019-05-03T10:40:26.976Z,11.90
2019-05-03T10:42:59.427Z,12.00
2019-05-03T10:45:35.366Z,12.10
2019-05-03T10:48:06.748Z,12.00
2019-05-03T10:50:37.628Z,12.00
2019-05-03T10:53:20.874Z,12.10
2019-05-03T10:56:13.870Z,12.20
2019-05-03T10:58:50.669Z,12.10
2019-05-03T11:01:40.939Z,12.10
2019-05-03T11:04:11.159Z,12.40
2019-05-03T11:06:41.276Z,12.80
2019-05-03T11:10:05.576Z,13.10
2019-05-03T12:46:19.720Z,14.30
2019-05-03T13:04:28.875Z,14.30
2019-05-03T13:07:19.698Z,14.70
2019-05-03T13:09:54.418Z,15.00
2019-05-03T13:39:13.989Z,16.20
2019-05-03T13:41:42.397Z,16.30
2019-05-03T13:44:12.678Z,16.30
2019-05-03T13:46:44.741Z,16.20
2019-05-03T13:49:15.874Z,15.90
2019-05-03T13:51:46.179Z,15.60
2019-05-03T13:54:18.080Z,15.50
2019-05-03T13:56:58.678Z,15.60
2019-05-03T13:59:32.348Z,15.70
2019-05-03T14:02:14.644Z,15.90
2019-05-03T14:04:49.342Z,16.00
2019-05-03T14:07:10.481Z,16.70
2019-05-03T14:09:45.120Z,18.90
2019-05-03T14:12:15.635Z,21.30
2019-05-03T14:14:56.328Z,22.90
2019-05-03T14:17:29.387Z,24.40
2019-05-03T14:20:19.669Z,25.60
2019-05-03T14:22:53.860Z,24.50
2019-05-03T14:25:24.752Z,22.60
2019-05-03T14:27:55.099Z,21.10
2019-05-03T14:30:25.433Z,19.90
2019-05-03T14:32:57.875Z,18.50
2019-05-03T14:35:28.208Z,17.90
2019-05-03T14:38:01.365Z,17.20
2019-05-03T14:40:31.986Z,16.80
2019-05-03T14:43:06.970Z,16.60
2019-05-03T14:45:40.859Z,16.40
2019-05-03T14:48:20.506Z,16.20
2019-05-03T14:50:57.500Z,15.70
2019-05-03T14:53:29.987Z,15.30
2019-05-03T14:56:21.415Z,15.20
2019-05-03T14:59:11.255Z,16.00
2019-05-03T15:01:48.436Z,16.90
2019-05-03T15:04:19.899Z,16.70
2019-05-03T15:07:00.352Z,16.50
2019-05-03T15:09:31.727Z,16.10
2019-05-03T15:12:02.193Z,15.90
2019-05-03T15:14:34.611Z,15.60
2019-05-03T15:17:07.784Z,15.40
2019-05-03T15:19:40.381Z,15.30
2019-05-03T15:22:10.617Z,15.00
2019-05-03T15:24:40.793Z,14.80
2019-05-03T15:27:14.646Z,14.70
2019-05-03T15:29:46.319Z,14.60
2019-05-03T15:32:19.436Z,14.50
2019-05-03T15:34:51.632Z,14.20
2019-05-03T15:37:25.490Z,14.10
2019-05-03T15:39:56.573Z,14.10
2019-05-03T15:42:28.795Z,14.00
2019-05-03T15:45:12.275Z,14.00
2019-05-03T15:48:04.638Z,14.00
2019-05-03T15:50:38.997Z,14.00
2019-05-03T15:53:10.730Z,14.20
2019-05-03T15:55:44.548Z,14.30
2019-05-03T15:58:15.778Z,14.50
2019-05-03T16:00:46.697Z,14.60
2019-05-03T16:03:16.832Z,14.60
2019-05-03T16:05:50.543Z,14.70
2019-05-03T16:08:24.806Z,14.70
2019-05-03T16:10:59.155Z,14.20
2019-05-03T16:13:39.793Z,14.10
2019-05-03T16:16:09.961Z,14.00
2019-05-03T16:18:41.145Z,13.90
2019-05-03T16:21:11.313Z,13.90
2019-05-03T16:23:42.532Z,13.80
2019-05-03T16:26:19.337Z,13.80
2019-05-03T16:29:01.832Z,13.40
2019-05-03T16:31:31.956Z,13.40
2019-05-03T16:34:04.294Z,13.50
2019-05-03T16:36:39.301Z,13.50
2019-05-03T16:39:12.314Z,13.60
2019-05-03T16:41:44.712Z,13.40
2019-05-03T16:47:40.767Z,13.60
2019-05-03T16:50:17.486Z,13.80
2019-05-03T16:52:49.224Z,13.90
2019-05-03T16:55:20.345Z,13.90
2019-05-03T16:57:54.922Z,13.90
2019-05-03T17:00:25.691Z,13.90
2019-05-03T17:02:57.458Z,13.90
2019-05-03T17:05:45.179Z,13.90
2019-05-03T17:08:37.919Z,13.80
2019-05-03T17:11:11.753Z,13.60
2019-05-03T17:13:48.017Z,13.60
2019-05-03T17:16:19.109Z,13.50
2019-05-03T17:19:05.796Z,13.50
2019-05-03T17:21:36.625Z,13.40
2019-05-03T17:24:19.402Z,13.40
2019-05-03T17:26:49.831Z,13.40
2019-05-03T17:29:20.129Z,13.30
2019-05-03T17:31:50.975Z,13.30
2019-05-03T17:34:21.438Z,13.30
2019-05-03T17:36:51.654Z,13.30
2019-05-03T17:39:41.446Z,13.20
2019-05-03T17:42:20.875Z,13.00
2019-05-03T17:44:51.309Z,13.00
2019-05-03T17:47:23.107Z,13.00
2019-05-03T17:49:54.650Z,13.10
2019-05-03T17:52:45.108Z,13.10
2019-05-03T17:55:28.098Z,13.00
2019-05-03T17:58:06.930Z,13.10
2019-05-03T18:01:08.118Z,13.00
2019-05-03T18:03:41.999Z,13.00
2019-05-03T18:06:21.809Z,13.00
2019-05-03T18:09:20.011Z,13.00
2019-05-03T18:11:58.884Z,13.00
2019-05-03T18:14:36.346Z,13.00
2019-05-03T18:17:09.415Z,13.00
2019-05-03T18:19:42.343Z,13.00
2019-05-03T18:22:15.513Z,13.00
2019-05-03T18:24:49.891Z,13.00
2019-05-03T18:27:22.250Z,13.00
2019-05-03T18:29:52.614Z,13.00
2019-05-03T18:32:32.039Z,12.80
2019-05-03T18:35:02.312Z,12.20
2019-05-03T18:37:37.671Z,12.20
2019-05-03T18:40:11.938Z,11.90
2019-05-03T18:42:48.204Z,11.70
2019-05-03T18:46:14.212Z,11.70
2019-05-03T18:48:55.030Z,11.60
2019-05-03T18:52:10.869Z,11.60
2019-05-03T18:55:12.782Z,11.60
2019-05-03T18:57:54.795Z,11.50
2019-05-03T19:01:15.044Z,11.50
2019-05-03T19:04:34.271Z,11.40
2019-05-03T19:07:29.566Z,11.30
2019-05-03T19:10:51.263Z,11.20
2019-05-03T19:13:41.516Z,11.10
2019-05-03T19:17:05.141Z,11.00
2019-05-03T19:42:15.863Z,10.60
2019-05-03T19:44:50.968Z,10.60
2019-05-03T19:47:35.357Z,10.50
2019-05-03T19:54:00.524Z,10.30
2019-05-03T19:56:35.716Z,10.30
2019-05-03T22:25:56.962Z,10.00
2019-05-03T22:29:18.510Z,10.10
2019-05-03T22:31:59.733Z,10.10
2019-05-03T22:35:06.604Z,10.00
2019-05-03T22:41:48.317Z,9.90
2019-05-03T22:44:31.280Z,9.90
2019-05-03T22:47:16.069Z,9.90
2019-05-03T22:50:25.633Z,10.00
2019-05-03T22:53:07.392Z,9.90
2019-05-03T22:56:31.884Z,9.90
2019-05-03T23:03:04.339Z,9.80
2019-05-03T23:06:34.237Z,9.80
2019-05-03T23:17:08.461Z,9.50
2019-05-03T23:20:50.920Z,9.30
2019-05-03T23:49:35.387Z,8.40
